Time;durP1;ratioP1;P1;durP2;ratioP2;P2;SDS_P1;SDS_P2;PMS_P1;PMS_P2;Temp;Humidity;BMP_temperature;BMP_pressure;BME280_temperature;BME280_humidity;BME280_pressure;Samples;Min_cycle;Max_cycle;Signal;HPM_P1;HPM_P2
2023/06/07 00:01:55;;;;;;;;;;;;;;;22.17;42.80;100821.50;4990602;28;8210;-74
2023/06/07 00:04:20;;;;;;;;;;;;;;;22.16;42.54;100818.03;4994562;28;6787;-73
2023/06/07 00:06:47;;;;;;;;;;;;;;;22.16;43.06;100818.03;4962590;28;7229;-75
2023/06/07 00:09:13;;;;;;;;;;;;;;;22.17;43.03;100822.38;4994827;28;7084;-73
2023/06/07 00:11:38;;;;;;;;;;;;;;;22.18;43.33;100823.25;4963435;28;6768;-73
2023/06/07 00:14:05;;;;;;;;;;;;;;;22.22;43.35;100822.41;4962178;28;6903;-74
2023/06/07 00:16:32;;;;;;;;;;;;;;;22.22;43.63;100822.41;4976871;28;7293;-73
2023/06/07 00:18:58;;;;;;;;;;;;;;;22.23;43.67;100828.50;4974739;28;7361;-74
2023/06/07 00:21:27;;;;;;;;;;;;;;;22.22;43.77;100822.41;4951608;28;7352;-74
2023/06/07 00:23:53;;;;;;;;;;;;;;;22.24;44.54;100820.69;4973305;28;6966;-75
2023/06/07 00:26:19;;;;;;;;;;;;;;;22.24;43.96;100825.00;4974569;28;7128;-73
2023/06/07 00:28:44;;;;;;;;;;;;;;;22.22;44.28;100817.19;4955319;28;6776;-73
2023/06/07 00:31:10;;;;;;;;;;;;;;;22.21;44.60;100820.63;4977228;28;8490;-75
2023/06/07 00:33:36;;;;;;;;;;;;;;;22.18;44.55;100818.03;4990130;28;6771;-75
2023/06/07 00:36:02;;;;;;;;;;;;;;;22.16;44.49;100822.38;4992040;28;7094;-74
2023/06/07 00:38:28;;;;;;;;;;;;;;;22.13;44.80;100819.75;4990225;28;6938;-73
2023/06/07 00:40:53;;;;;;;;;;;;;;;22.10;44.73;100820.59;4992054;28;8387;-75
2023/06/07 00:43:19;;;;;;;;;;;;;;;22.07;44.68;100817.97;4953512;28;6945;-74
2023/06/07 00:45:45;;;;;;;;;;;;;;;22.03;44.90;100814.47;4957907;28;6959;-74
2023/06/07 00:48:12;;;;;;;;;;;;;;;22.00;45.40;100813.56;4957795;28;6772;-75
2023/06/07 00:50:39;;;;;;;;;;;;;;;21.96;45.22;100820.50;4963741;28;6847;-75
2023/06/07 00:53:05;;;;;;;;;;;;;;;21.89;45.41;100816.97;4991011;28;6991;-76
2023/06/07 00:55:32;;;;;;;;;;;;;;;21.83;45.55;100813.44;4989744;28;8660;-74
2023/06/07 00:57:58;;;;;;;;;;;;;;;21.74;45.25;100817.72;4991880;28;7237;-76
2023/06/07 01:00:24;;;;;;;;;;;;;;;21.70;45.65;100825.50;4958570;28;7628;-73
2023/06/07 01:02:51;;;;;;;;;;;;;;;21.66;45.90;100827.16;4982288;28;6993;-75
2023/06/07 01:05:17;;;;;;;;;;;;;;;21.60;46.31;100822.78;4992187;28;7240;-76
2023/06/07 01:07:48;;;;;;;;;;;;;;;21.56;46.04;100825.34;4959490;28;6995;-74
2023/06/07 01:10:15;;;;;;;;;;;;;;;21.49;46.49;100825.28;4961249;28;6796;-75
2023/06/07 01:12:47;;;;;;;;;;;;;;;21.45;46.49;100822.63;4961405;28;6801;-74
2023/06/07 01:15:14;;;;;;;;;;;;;;;21.39;46.59;100830.38;4973832;28;7296;-73
2023/06/07 01:17:44;;;;;;;;;;;;;;;21.32;46.84;100821.63;4972141;28;7001;-75
2023/06/07 01:20:18;;;;;;;;;;;;;;;21.26;47.06;100825.03;4956070;28;7010;-73
2023/06/07 01:22:46;;;;;;;;;;;;;;;21.18;47.21;100824.97;4973720;28;6966;-74
2023/06/07 01:25:12;;;;;;;;;;;;;;;21.12;47.63;100822.28;4974190;28;6979;-73
2023/06/07 01:27:40;;;;;;;;;;;;;;;21.08;47.66;100817.91;4976900;28;6784;-76
2023/06/07 01:30:08;;;;;;;;;;;;;;;21.02;47.94;100818.72;4975215;28;6796;-74
2023/06/07 01:32:36;;;;;;;;;;;;;;;20.99;47.99;100817.81;4975385;28;6823;-74
2023/06/07 01:35:03;;;;;;;;;;;;;;;20.92;48.09;100817.72;4988366;28;6815;-74
2023/06/07 01:37:31;;;;;;;;;;;;;;;20.88;48.12;100820.25;4978334;28;6816;-73
2023/06/07 01:39:58;;;;;;;;;;;;;;;20.82;48.31;100818.47;4972805;28;6982;-74
2023/06/07 01:42:24;;;;;;;;;;;;;;;20.77;48.51;100820.97;4987118;28;6784;-75
2023/06/07 01:44:52;;;;;;;;;;;;;;;20.73;48.63;100821.81;4987384;28;6788;-74
2023/06/07 01:47:18;;;;;;;;;;;;;;;20.68;48.48;100816.53;4975978;28;7315;-74
2023/06/07 01:49:45;;;;;;;;;;;;;;;20.66;48.79;100814.75;4967159;28;6780;-74
2023/06/07 01:52:10;;;;;;;;;;;;;;;20.62;49.09;100813.00;4959719;28;7245;-75
2023/06/07 01:54:38;;;;;;;;;;;;;;;20.60;49.29;100809.47;4958480;28;6772;-74
2023/06/07 01:57:30;;;;;;;;;;;;;;;20.57;49.67;100815.53;4988868;28;6854;-74
2023/06/07 02:00:09;;;;;;;;;;;;;;;20.54;49.17;100816.34;4992572;28;6795;-75
2023/06/07 02:02:53;;;;;;;;;;;;;;;20.48;50.02;100805.84;4981101;28;11554;-75
2023/06/07 02:05:28;;;;;;;;;;;;;;;20.44;49.73;100806.69;4987227;28;6847;-75
2023/06/07 02:08:00;;;;;;;;;;;;;;;20.40;49.81;100810.97;4983474;28;7016;-75
2023/06/07 02:10:30;;;;;;;;;;;;;;;20.37;49.83;100799.63;4956196;28;7399;-75
2023/06/07 02:12:59;;;;;;;;;;;;;;;20.33;49.83;100805.63;4991124;28;7139;-75
2023/06/07 02:15:25;;;;;;;;;;;;;;;20.30;49.92;100800.38;4944776;28;7339;-75
2023/06/07 02:18:01;;;;;;;;;;;;;;;20.26;50.21;100795.16;4951376;28;7001;-75
2023/06/07 02:20:34;;;;;;;;;;;;;;;20.21;50.32;100802.00;4955441;28;6835;-75
2023/06/07 02:23:00;;;;;;;;;;;;;;;20.17;50.20;100804.53;4955123;28;6997;-75
2023/06/07 02:25:27;;;;;;;;;;;;;;;20.10;50.21;100800.97;4958594;28;6788;-75
2023/06/07 02:27:53;;;;;;;;;;;;;;;20.07;50.53;100807.00;4989342;28;6803;-75
2023/06/07 02:30:19;;;;;;;;;;;;;;;20.04;50.66;100809.56;4960064;28;6784;-75
2023/06/07 02:32:48;;;;;;;;;;;;;;;19.99;50.83;100808.63;4992685;28;6787;-75
2023/06/07 02:35:17;;;;;;;;;;;;;;;19.96;50.81;100811.16;4975331;28;6862;-75
2023/06/07 02:37:43;;;;;;;;;;;;;;;19.89;51.02;100807.56;4987392;28;6977;-75
2023/06/07 02:40:10;;;;;;;;;;;;;;;19.87;51.24;100809.28;4959037;28;6963;-75
2023/06/07 02:42:36;;;;;;;;;;;;;;;19.84;51.04;100807.50;4976276;28;6996;-75
2023/06/07 02:45:03;;;;;;;;;;;;;;;19.82;51.54;100810.91;4988897;28;7175;-75
2023/06/07 02:47:32;;;;;;;;;;;;;;;19.78;51.54;100807.38;4944056;28;7296;-75
2023/06/07 02:49:58;;;;;;;;;;;;;;;19.77;51.39;100813.44;4979226;28;6986;-75
2023/06/07 02:52:27;;;;;;;;;;;;;;;19.75;51.13;100820.34;4974923;28;7966;-75
2023/06/07 02:54:53;;;;;;;;;;;;;;;19.73;51.56;100813.34;4957566;28;7155;-75
2023/06/07 02:57:19;;;;;;;;;;;;;;;19.72;51.34;100815.09;4985049;28;6799;-75
2023/06/07 02:59:44;;;;;;;;;;;;;;;19.70;51.51;100815.06;4960977;28;6856;-74
2023/06/07 03:02:10;;;;;;;;;;;;;;;19.69;51.66;100812.41;4954523;28;7381;-73
2023/06/07 03:04:38;;;;;;;;;;;;;;;19.68;51.75;100818.47;4975574;28;6854;-73
2023/06/07 03:07:05;;;;;;;;;;;;;;;19.68;51.94;100816.75;4959149;28;6804;-74
2023/06/07 03:09:31;;;;;;;;;;;;;;;19.68;51.93;100816.75;4970892;28;6812;-74
2023/06/07 03:11:57;;;;;;;;;;;;;;;19.69;52.08;100808.09;4970103;28;7213;-74
2023/06/07 03:14:23;;;;;;;;;;;;;;;19.71;51.97;100808.16;4974042;28;7014;-74
2023/06/07 03:16:48;;;;;;;;;;;;;;;19.72;52.32;100817.69;4979098;28;6931;-74
2023/06/07 03:19:14;;;;;;;;;;;;;;;19.74;52.27;100815.09;4959262;28;6784;-74
2023/06/07 03:21:44;;;;;;;;;;;;;;;19.75;52.10;100816.84;4958497;28;6864;-73
2023/06/07 03:24:14;;;;;;;;;;;;;;;19.76;51.86;100803.03;4978931;28;6835;-76
2023/06/07 03:26:40;;;;;;;;;;;;;;;19.79;52.27;100813.47;4954286;28;7199;-75
2023/06/07 03:29:06;;;;;;;;;;;;;;;19.79;51.98;100806.53;4957312;28;7249;-74
2023/06/07 03:31:32;;;;;;;;;;;;;;;19.82;52.14;100804.00;4982904;28;7240;-74
2023/06/07 03:33:58;;;;;;;;;;;;;;;19.84;51.91;100806.59;4985439;28;6795;-74
2023/06/07 03:36:28;;;;;;;;;;;;;;;19.87;52.20;100808.38;4986712;28;6788;-73
2023/06/07 03:38:56;;;;;;;;;;;;;;;19.87;51.78;100810.97;4981068;28;6955;-75
2023/06/07 03:41:22;;;;;;;;;;;;;;;19.89;52.28;100823.16;4952918;28;6792;-74
2023/06/07 03:43:48;;;;;;;;;;;;;;;19.90;51.81;100817.13;4948140;28;8638;-74
2023/06/07 03:46:14;;;;;;;;;;;;;;;19.90;51.82;100826.66;4963635;28;7006;-73
2023/06/07 03:48:39;;;;;;;;;;;;;;;19.90;51.71;100818.84;4948968;28;7060;-74
2023/06/07 03:51:06;;;;;;;;;;;;;;;19.89;52.29;100815.38;4951152;28;6772;-73
2023/06/07 03:53:32;;;;;;;;;;;;;;;19.90;52.15;100821.47;4955652;28;6788;-73
2023/06/07 03:55:58;;;;;;;;;;;;;;;19.88;51.97;100830.94;4986226;28;7192;-73
2023/06/07 03:58:24;;;;;;;;;;;;;;;19.86;51.91;100825.72;4956299;28;6768;-76
2023/06/07 04:00:53;;;;;;;;;;;;;;;19.84;51.87;100823.09;4985247;28;7213;-76
2023/06/07 04:03:24;;;;;;;;;;;;;;;19.83;52.46;100825.66;4978501;28;7331;-76
2023/06/07 04:05:51;;;;;;;;;;;;;;;19.81;52.16;100820.44;4972857;28;6994;-76
2023/06/07 04:08:16;;;;;;;;;;;;;;;19.80;52.35;100821.31;4987236;28;6962;-76
2023/06/07 04:10:42;;;;;;;;;;;;;;;19.79;52.37;100821.28;4974631;28;7239;-76
2023/06/07 04:13:08;;;;;;;;;;;;;;;19.78;52.29;100827.31;4982172;28;7222;-76
2023/06/07 04:15:34;;;;;;;;;;;;;;;19.79;52.13;100822.13;4943012;28;7019;-76
2023/06/07 04:18:00;;;;;;;;;;;;;;;19.78;52.72;100822.97;4937307;28;7253;-76
2023/06/07 04:20:27;;;;;;;;;;;;;;;19.80;52.20;100826.50;4950574;28;6788;-76
2023/06/07 04:22:53;;;;;;;;;;;;;;;19.80;52.48;100823.91;4980502;28;7013;-76
2023/06/07 04:25:31;;;;;;;;;;;;;;;19.82;52.36;100824.81;4971591;28;7269;-76
2023/06/07 04:27:59;;;;;;;;;;;;;;;19.83;52.53;100823.94;4968053;28;7292;-76
2023/06/07 04:30:40;;;;;;;;;;;;;;;19.85;52.25;100827.44;4986553;28;7331;-76
2023/06/07 04:33:09;;;;;;;;;;;;;;;19.87;51.86;100821.38;4986418;28;6807;-76
2023/06/07 04:35:36;;;;;;;;;;;;;;;19.90;52.31;100831.84;4942969;28;6986;-76
2023/06/07 04:38:02;;;;;;;;;;;;;;;19.94;52.09;100818.06;4976302;28;6984;-76
2023/06/07 04:40:30;;;;;;;;;;;;;;;19.96;52.03;100818.97;4939435;28;6972;-76
2023/06/07 04:43:05;;;;;;;;;;;;;;;19.98;51.76;100819.84;4954260;28;6983;-76
2023/06/07 04:45:41;;;;;;;;;;;;;;;20.01;51.97;100822.53;4954374;28;6975;-76
2023/06/07 04:48:07;;;;;;;;;;;;;;;20.02;51.93;100824.28;4977388;28;6998;-76
2023/06/07 04:50:35;;;;;;;;;;;;;;;20.05;52.06;100831.25;4958429;28;7071;-76
2023/06/07 04:53:02;;;;;;;;;;;;;;;20.07;52.04;100827.81;4959453;28;7003;-76
2023/06/07 04:55:34;;;;;;;;;;;;;;;20.07;51.77;100826.94;4960068;28;6800;-76
2023/06/07 04:58:05;;;;;;;;;;;;;;;20.05;51.96;100832.13;4976178;28;8352;-75
2023/06/07 05:00:33;;;;;;;;;;;;;;;20.07;52.09;100835.63;4972617;28;7058;-76
2023/06/07 05:03:08;;;;;;;;;;;;;;;20.07;51.92;100840.81;4960259;28;6812;-76
2023/06/07 05:05:35;;;;;;;;;;;;;;;20.07;51.72;100843.41;4962240;28;6884;-76
2023/06/07 05:08:01;;;;;;;;;;;;;;;20.09;51.51;100839.13;4992459;28;6820;-75
2023/06/07 05:10:27;;;;;;;;;;;;;;;20.12;51.35;100844.38;4982562;28;7051;-75
2023/06/07 05:12:53;;;;;;;;;;;;;;;20.12;51.70;100843.50;4949375;28;7220;-75
2023/06/07 05:15:21;;;;;;;;;;;;;;;20.12;51.73;100846.09;4960540;28;6788;-76
2023/06/07 05:17:48;;;;;;;;;;;;;;;20.16;51.83;100844.41;4987532;28;7230;-75
2023/06/07 05:20:15;;;;;;;;;;;;;;;20.19;51.71;100841.88;4955570;28;7002;-75
2023/06/07 05:22:43;;;;;;;;;;;;;;;20.22;51.33;100841.91;4944093;28;7433;-75
2023/06/07 05:25:11;;;;;;;;;;;;;;;20.23;51.73;100846.28;4939712;28;7268;-76
2023/06/07 05:27:38;;;;;;;;;;;;;;;20.26;51.84;100855.00;4988626;28;7090;-76
2023/06/07 05:30:06;;;;;;;;;;;;;;;20.29;51.50;100848.97;4984792;28;6784;-75
2023/06/07 05:32:36;;;;;;;;;;;;;;;20.32;51.17;100851.63;4997091;28;6828;-76
2023/06/07 05:35:04;;;;;;;;;;;;;;;20.34;51.74;100855.09;4978368;28;7403;-75
2023/06/07 05:37:31;;;;;;;;;;;;;;;20.36;51.53;100847.34;4999380;28;6799;-76
2023/06/07 05:39:57;;;;;;;;;;;;;;;20.37;51.06;100849.94;4951738;28;7500;-75
2023/06/07 05:42:24;;;;;;;;;;;;;;;20.40;51.37;100849.13;4964719;28;7184;-76
2023/06/07 05:44:50;;;;;;;;;;;;;;;20.41;51.20;100840.44;4997574;28;7381;-75
2023/06/07 05:47:17;;;;;;;;;;;;;;;20.46;51.05;100843.13;4989491;28;6780;-75
2023/06/07 05:49:47;;;;;;;;;;;;;;;20.50;51.36;100850.13;4962588;28;6812;-76
2023/06/07 05:52:13;;;;;;;;;;;;;;;20.53;51.29;100850.16;4964916;28;7386;-76
2023/06/07 05:54:47;;;;;;;;;;;;;;;20.59;51.35;100844.16;4966561;28;6800;-75
2023/06/07 05:57:13;;;;;;;;;;;;;;;20.68;51.29;100845.19;4962226;28;8788;-76
2023/06/07 05:59:38;;;;;;;;;;;;;;;20.77;51.09;100843.56;4987225;28;7038;-76
2023/06/07 06:02:04;;;;;;;;;;;;;;;20.86;50.98;100853.25;4959603;28;6776;-75
2023/06/07 06:04:30;;;;;;;;;;;;;;;20.91;51.17;100849.84;4950619;28;7236;-75
2023/06/07 06:06:56;;;;;;;;;;;;;;;20.95;50.78;100861.19;4964015;28;7022;-76
2023/06/07 06:09:22;;;;;;;;;;;;;;;21.00;50.78;100859.47;4992744;28;6960;-76
2023/06/07 06:11:48;;;;;;;;;;;;;;;21.05;50.22;100867.34;4973577;28;6995;-76
2023/06/07 06:14:13;;;;;;;;;;;;;;;21.08;50.58;100864.81;4966562;28;7233;-76
2023/06/07 06:16:39;;;;;;;;;;;;;;;21.11;50.69;100862.22;4961582;28;7246;-76
2023/06/07 06:19:04;;;;;;;;;;;;;;;21.17;50.38;100854.50;4991410;28;7230;-75
2023/06/07 06:21:30;;;;;;;;;;;;;;;21.26;50.57;100864.13;4953928;28;6817;-75
2023/06/07 06:23:56;;;;;;;;;;;;;;;21.35;50.61;100860.78;4975652;28;7046;-75
2023/06/07 06:26:22;;;;;;;;;;;;;;;21.47;50.34;100868.72;4980404;28;6950;-75
2023/06/07 06:28:48;;;;;;;;;;;;;;;21.56;50.28;100867.91;4956645;28;7006;-75
2023/06/07 06:31:13;;;;;;;;;;;;;;;21.66;50.33;100874.13;4955399;28;6800;-76
2023/06/07 06:33:39;;;;;;;;;;;;;;;21.75;50.27;100866.41;4989059;28;6779;-75
2023/06/07 06:36:05;;;;;;;;;;;;;;;21.87;49.59;100873.44;4990492;28;6792;-75
2023/06/07 06:38:30;;;;;;;;;;;;;;;22.01;49.69;100870.09;4989136;28;7030;-76
2023/06/07 06:40:56;;;;;;;;;;;;;;;22.15;49.79;100867.59;4975491;28;7323;-75
2023/06/07 06:43:22;;;;;;;;;;;;;;;22.30;49.57;100867.69;4959952;28;6780;-76
2023/06/07 06:45:47;;;;;;;;;;;;;;;22.46;49.10;100862.59;4967621;28;6850;-76
2023/06/07 06:48:13;;;;;;;;;;;;;;;22.61;48.98;100872.28;4959360;28;7439;-75
2023/06/07 06:50:38;;;;;;;;;;;;;;;22.66;48.33;100869.69;4992301;28;6767;-76
2023/06/07 06:53:04;;;;;;;;;;;;;;;22.66;47.94;100865.34;4979136;28;6975;-76
2023/06/07 06:55:30;;;;;;;;;;;;;;;22.67;47.98;100872.31;4952474;28;6884;-76
2023/06/07 06:57:56;;;;;;;;;;;;;;;22.71;47.95;100878.44;4972457;28;7116;-76
2023/06/07 07:00:23;;;;;;;;;;;;;;;22.73;48.08;100874.09;4994986;28;7104;-76
2023/06/07 07:02:49;;;;;;;;;;;;;;;22.77;47.31;100875.84;4968005;28;6912;-76
2023/06/07 07:05:15;;;;;;;;;;;;;;;22.79;47.19;100879.34;4966321;28;6947;-76
2023/06/07 07:07:41;;;;;;;;;;;;;;;22.81;47.38;100880.22;4998194;28;6807;-76
2023/06/07 07:10:08;;;;;;;;;;;;;;;22.84;47.18;100881.97;4994018;28;6967;-76
2023/06/07 07:12:36;;;;;;;;;;;;;;;22.89;47.82;100885.47;4991673;28;9408;-76
2023/06/07 07:15:02;;;;;;;;;;;;;;;22.98;47.07;100893.38;4984434;28;6997;-76
2023/06/07 07:17:29;;;;;;;;;;;;;;;23.06;47.06;100890.78;4995494;28;6764;-76
2023/06/07 07:19:54;;;;;;;;;;;;;;;23.20;47.28;100895.19;4968716;28;6792;-76
2023/06/07 07:22:20;;;;;;;;;;;;;;;23.29;46.49;100897.88;4979140;28;7029;-76
2023/06/07 07:24:46;;;;;;;;;;;;;;;23.38;46.94;100902.25;4995285;28;6776;-76
2023/06/07 07:27:11;;;;;;;;;;;;;;;23.44;46.44;100900.53;4988745;28;6798;-76
2023/06/07 07:29:37;;;;;;;;;;;;;;;23.53;46.07;100904.03;4967263;28;7288;-76
2023/06/07 07:32:03;;;;;;;;;;;;;;;23.60;46.18;100908.41;4949357;28;8384;-76
2023/06/07 07:34:28;;;;;;;;;;;;;;;23.69;46.61;100903.19;4968156;28;7198;-76
2023/06/07 07:36:57;;;;;;;;;;;;;;;23.78;46.29;100901.47;4992544;28;6764;-75
2023/06/07 07:39:25;;;;;;;;;;;;;;;23.85;45.79;100904.09;4964522;28;6824;-75
2023/06/07 07:41:51;;;;;;;;;;;;;;;23.89;45.99;100899.72;4996224;28;6803;-75
2023/06/07 07:44:16;;;;;;;;;;;;;;;23.93;45.53;100896.22;4985144;28;7239;-75
2023/06/07 07:46:42;;;;;;;;;;;;;;;23.97;45.81;100890.13;4962784;28;6839;-75
2023/06/07 07:49:08;;;;;;;;;;;;;;;24.00;45.17;100895.38;4969107;28;6772;-76
2023/06/07 07:51:34;;;;;;;;;;;;;;;24.02;44.66;100894.50;4965755;28;6784;-75
2023/06/07 07:54:00;;;;;;;;;;;;;;;24.02;44.91;100904.97;4964384;28;6768;-75
2023/06/07 07:56:26;;;;;;;;;;;;;;;23.94;44.31;100915.44;4964773;28;7313;-76
2023/06/07 07:58:53;;;;;;;;;;;;;;;23.82;44.78;100918.91;4952648;28;7249;-75
2023/06/07 08:01:19;;;;;;;;;;;;;;;23.70;44.53;100914.53;4986115;28;7532;-74
2023/06/07 08:03:46;;;;;;;;;;;;;;;23.60;44.98;100916.25;4984233;28;6879;-73
2023/06/07 08:06:12;;;;;;;;;;;;;;;23.49;44.92;100911.00;4973274;28;6980;-74
2023/06/07 08:08:37;;;;;;;;;;;;;;;23.42;45.42;100909.25;4988686;28;7161;-73
2023/06/07 08:11:03;;;;;;;;;;;;;;;23.36;44.64;100911.84;4962066;28;6780;-74
2023/06/07 08:13:29;;;;;;;;;;;;;;;23.34;45.30;100910.97;4957406;28;6776;-76
2023/06/07 08:15:55;;;;;;;;;;;;;;;23.33;45.72;100914.47;4968693;28;7066;-73
2023/06/07 08:18:21;;;;;;;;;;;;;;;23.32;45.14;100921.41;4963094;28;6799;-73
2023/06/07 08:20:47;;;;;;;;;;;;;;;23.29;45.25;100918.81;4990452;28;6768;-73
2023/06/07 08:23:12;;;;;;;;;;;;;;;23.28;44.97;100912.69;4992645;28;8062;-73
2023/06/07 08:25:38;;;;;;;;;;;;;;;23.35;45.72;100912.72;4982167;28;7151;-74
2023/06/07 08:28:04;;;;;;;;;;;;;;;23.41;45.86;100913.59;4965126;28;6969;-74
2023/06/07 08:30:31;;;;;;;;;;;;;;;23.55;45.70;100915.38;4962000;28;7082;-73
2023/06/07 08:32:56;;;;;;;;;;;;;;;23.68;44.98;100913.66;4962873;28;6780;-73
2023/06/07 08:35:22;;;;;;;;;;;;;;;23.74;44.89;100921.53;4954293;28;7150;-74
2023/06/07 08:37:48;;;;;;;;;;;;;;;23.83;45.50;100918.91;4945379;28;6929;-73
2023/06/07 08:40:18;;;;;;;;;;;;;;;23.98;44.84;100925.03;4987806;28;6764;-73
2023/06/07 08:42:44;;;;;;;;;;;;;;;24.11;44.45;100928.56;4975781;28;6780;-75
2023/06/07 08:45:10;;;;;;;;;;;;;;;24.23;44.58;100925.94;4960857;28;6979;-73
2023/06/07 08:47:37;;;;;;;;;;;;;;;24.41;44.45;100921.56;4949147;28;7060;-72
2023/06/07 08:50:04;;;;;;;;;;;;;;;24.66;44.47;100914.53;4966013;28;6922;-74
2023/06/07 08:52:48;;;;;;;;;;;;;;;24.93;44.10;100904.88;4977382;28;6816;-73
2023/06/07 08:55:14;;;;;;;;;;;;;;;25.15;43.28;100906.53;4994177;28;7082;-73
2023/06/07 08:57:40;;;;;;;;;;;;;;;25.35;43.29;100902.06;4974405;28;6831;-74
2023/06/07 09:00:08;;;;;;;;;;;;;;;25.47;42.74;100913.34;4996823;28;6981;-73
2023/06/07 09:02:35;;;;;;;;;;;;;;;25.38;41.92;100915.16;4996796;28;7077;-73
2023/06/07 09:05:01;;;;;;;;;;;;;;;25.22;42.02;100908.25;4991144;28;6862;-75
2023/06/07 09:07:27;;;;;;;;;;;;;;;25.16;42.28;100921.38;4945440;28;6991;-74
2023/06/07 09:09:53;;;;;;;;;;;;;;;25.16;42.49;100924.91;4989128;28;6768;-72
2023/06/07 09:12:19;;;;;;;;;;;;;;;25.21;42.23;100917.00;4966331;28;6926;-75
2023/06/07 09:14:46;;;;;;;;;;;;;;;25.21;42.16;100923.09;4976330;28;6803;-74
2023/06/07 09:17:12;;;;;;;;;;;;;;;25.18;42.21;100927.50;4961941;28;6836;-75
2023/06/07 09:19:40;;;;;;;;;;;;;;;25.10;42.08;100925.75;4992939;28;6936;-74
2023/06/07 09:22:09;;;;;;;;;;;;;;;25.04;42.35;100931.06;4986370;28;6784;-72
2023/06/07 09:24:36;;;;;;;;;;;;;;;24.95;41.68;100931.09;4958573;28;7180;-72
2023/06/07 09:27:04;;;;;;;;;;;;;;;24.86;41.93;100938.97;4941682;28;7257;-74
2023/06/07 09:29:42;;;;;;;;;;;;;;;24.82;42.66;100943.34;4964914;28;7299;-74
2023/06/07 09:32:23;;;;;;;;;;;;;;;24.76;42.29;100943.31;4973301;28;7267;-73
2023/06/07 09:34:52;;;;;;;;;;;;;;;24.66;42.64;100947.72;4959087;28;7340;-72
2023/06/07 09:37:20;;;;;;;;;;;;;;;24.56;42.62;100944.22;4960364;28;6993;-75
2023/06/07 09:39:52;;;;;;;;;;;;;;;24.43;42.16;100948.63;4959257;28;7016;-75
2023/06/07 09:42:19;;;;;;;;;;;;;;;24.33;42.51;100946.88;4959279;28;6872;-73
2023/06/07 09:44:44;;;;;;;;;;;;;;;24.17;43.01;100943.38;4975562;28;7002;-73
2023/06/07 09:47:21;;;;;;;;;;;;;;;24.04;42.87;100939.84;4986771;28;7230;-75
2023/06/07 09:49:47;;;;;;;;;;;;;;;23.94;42.70;100952.09;4977772;28;7071;-74
2023/06/07 09:52:15;;;;;;;;;;;;;;;23.88;42.70;100946.81;4980131;28;7399;-74
2023/06/07 09:54:45;;;;;;;;;;;;;;;23.88;42.99;100944.22;4974689;28;6819;-75
2023/06/07 09:57:32;;;;;;;;;;;;;;;23.91;42.87;100945.09;4971547;28;6772;-75
2023/06/07 10:00:16;;;;;;;;;;;;;;;23.93;43.59;100942.47;4958379;28;7046;-74
2023/06/07 10:02:44;;;;;;;;;;;;;;;23.93;43.54;100938.09;4961060;28;11733;-74
2023/06/07 10:05:15;;;;;;;;;;;;;;;23.97;43.19;100933.75;4963609;28;7014;-73
2023/06/07 10:07:50;;;;;;;;;;;;;;;24.01;43.31;100935.53;4986391;28;6891;-73
2023/06/07 10:10:21;;;;;;;;;;;;;;;24.06;43.15;100932.94;4962461;28;6804;-73
2023/06/07 10:12:50;;;;;;;;;;;;;;;24.09;43.55;100931.16;4988955;28;6800;-74
2023/06/07 10:15:25;;;;;;;;;;;;;;;24.13;43.65;100924.19;4969248;28;7318;-74
2023/06/07 10:18:19;;;;;;;;;;;;;;;24.21;43.29;100924.22;4959410;28;6802;-74
2023/06/07 10:20:57;;;;;;;;;;;;;;;24.34;43.61;100923.31;4960154;28;6960;-73
2023/06/07 10:23:50;;;;;;;;;;;;;;;24.57;43.29;100909.28;4976066;28;6819;-74
2023/06/07 10:26:37;;;;;;;;;;;;;;;24.85;43.08;100905.78;4947675;28;6903;-75
2023/06/07 10:29:11;;;;;;;;;;;;;;;25.12;42.86;100911.81;4985892;28;6958;-73
2023/06/07 10:32:16;;;;;;;;;;;;;;;25.30;41.81;100901.22;4989686;28;6990;-73
2023/06/07 10:34:45;;;;;;;;;;;;;;;25.40;42.12;100911.63;4949766;28;7000;-74
2023/06/07 10:37:14;;;;;;;;;;;;;;;25.34;41.78;100909.91;4991626;28;6875;-73
2023/06/07 10:39:40;;;;;;;;;;;;;;;25.21;41.60;100909.13;4980942;28;7151;-74
2023/06/07 10:42:06;;;;;;;;;;;;;;;25.05;42.08;100901.34;4995748;28;6768;-74
2023/06/07 10:44:35;;;;;;;;;;;;;;;24.88;41.74;100905.75;4976900;28;7046;-76
2023/06/07 10:47:26;;;;;;;;;;;;;;;24.67;42.11;100910.16;4958401;28;7153;-76
2023/06/07 10:49:53;;;;;;;;;;;;;;;24.46;42.86;100917.19;4974478;28;7126;-74
2023/06/07 10:52:20;;;;;;;;;;;;;;;24.29;42.93;100921.56;4986973;28;6795;-73
2023/06/07 10:54:46;;;;;;;;;;;;;;;24.09;42.69;100922.44;4986690;28;6780;-74
2023/06/07 10:57:12;;;;;;;;;;;;;;;23.94;43.26;100918.06;4986370;28;6768;-74
2023/06/07 10:59:39;;;;;;;;;;;;;;;23.81;43.34;100914.53;4995522;28;7226;-73
2023/06/07 11:02:24;;;;;;;;;;;;;;;23.71;44.00;100918.91;4975141;28;6800;-74
2023/06/07 11:04:58;;;;;;;;;;;;;;;23.65;43.88;100917.13;4955725;28;7273;-73
2023/06/07 11:07:32;;;;;;;;;;;;;;;23.59;44.05;100914.53;4943349;28;7009;-74
2023/06/07 11:10:00;;;;;;;;;;;;;;;23.55;44.66;100915.38;4973376;28;7013;-74
2023/06/07 11:12:35;;;;;;;;;;;;;;;23.52;44.60;100915.38;4965851;28;6804;-73
2023/06/07 11:15:20;;;;;;;;;;;;;;;23.44;44.44;100913.59;4959897;28;7252;-74
2023/06/07 11:18:05;;;;;;;;;;;;;;;23.37;45.26;100919.69;4954858;28;6804;-74
2023/06/07 11:20:39;;;;;;;;;;;;;;;23.30;44.86;100912.69;4957559;28;6976;-74
2023/06/07 11:23:31;;;;;;;;;;;;;;;23.22;45.67;100902.16;4975179;28;7272;-73
2023/06/07 11:26:12;;;;;;;;;;;;;;;23.10;45.55;100889.94;4981952;28;6792;-76
2023/06/07 11:28:40;;;;;;;;;;;;;;;22.97;45.80;100895.97;4985522;28;6800;-75
2023/06/07 11:31:13;;;;;;;;;;;;;;;22.83;46.47;100898.50;4974254;28;7316;-75
2023/06/07 11:33:43;;;;;;;;;;;;;;;22.67;46.58;100903.66;4961110;28;6858;-73
2023/06/07 11:36:09;;;;;;;;;;;;;;;22.55;46.91;100903.56;4986916;28;7116;-73
2023/06/07 11:38:35;;;;;;;;;;;;;;;22.44;47.25;100912.19;4974991;28;6927;-73
2023/06/07 11:41:03;;;;;;;;;;;;;;;22.39;47.84;100913.00;4988519;28;7584;-73
2023/06/07 11:43:31;;;;;;;;;;;;;;;22.33;48.19;100909.50;4988025;28;7011;-74
2023/06/07 11:45:58;;;;;;;;;;;;;;;22.33;48.27;100898.19;4965667;28;6955;-73
2023/06/07 11:48:29;;;;;;;;;;;;;;;22.36;48.70;100892.09;4962333;28;6856;-73
2023/06/07 11:50:55;;;;;;;;;;;;;;;22.37;48.56;100893.84;4952235;28;7258;-76
2023/06/07 11:53:21;;;;;;;;;;;;;;;22.37;48.44;100896.47;4986717;28;6931;-73
2023/06/07 11:55:47;;;;;;;;;;;;;;;22.38;48.98;100896.50;4966442;28;7031;-74
2023/06/07 11:58:13;;;;;;;;;;;;;;;22.42;48.96;100907.84;4968154;28;6975;-73
2023/06/07 12:00:43;;;;;;;;;;;;;;;22.43;49.10;100905.22;4966628;28;6943;-73
2023/06/07 12:03:13;;;;;;;;;;;;;;;22.48;48.90;100902.63;4985545;28;6848;-75
2023/06/07 12:05:39;;;;;;;;;;;;;;;22.51;48.80;100901.81;4962175;28;6846;-74
2023/06/07 12:08:10;;;;;;;;;;;;;;;22.55;49.06;100895.72;4988824;28;6983;-74
2023/06/07 12:10:38;;;;;;;;;;;;;;;22.61;48.97;100899.28;4994188;28;7221;-75
2023/06/07 12:13:16;;;;;;;;;;;;;;;22.67;48.84;100897.56;4988446;28;6872;-75
2023/06/07 12:15:55;;;;;;;;;;;;;;;22.78;49.33;100898.47;4949611;28;7249;-74
2023/06/07 12:18:29;;;;;;;;;;;;;;;22.90;49.04;100892.44;4959414;28;6844;-74
2023/06/07 12:21:07;;;;;;;;;;;;;;;22.96;48.52;100889.88;4976847;28;6976;-73
2023/06/07 12:23:37;;;;;;;;;;;;;;;22.98;48.49;100884.63;4991076;28;6819;-77
2023/06/07 12:26:14;;;;;;;;;;;;;;;23.06;48.55;100880.31;4951880;28;6989;-77
2023/06/07 12:28:42;;;;;;;;;;;;;;;23.17;48.61;100882.97;4976394;28;7240;-78
2023/06/07 12:31:27;;;;;;;;;;;;;;;23.32;48.16;100892.66;4961353;28;6826;-77
2023/06/07 12:34:05;;;;;;;;;;;;;;;23.46;48.26;100879.59;4991083;28;6804;-77
2023/06/07 12:36:37;;;;;;;;;;;;;;;23.59;47.77;100877.91;4997143;28;7319;-78
2023/06/07 12:39:11;;;;;;;;;;;;;;;23.76;47.35;100872.66;4953079;28;7173;-77
2023/06/07 12:41:40;;;;;;;;;;;;;;;23.93;46.97;100870.06;4956569;28;6832;-77
2023/06/07 12:44:08;;;;;;;;;;;;;;;24.12;47.16;100870.97;4972516;28;7041;-77
2023/06/07 12:46:35;;;;;;;;;;;;;;;24.33;47.05;100869.19;4956651;28;6842;-77
2023/06/07 12:49:01;;;;;;;;;;;;;;;24.52;46.70;100862.16;4943482;28;7083;-77
2023/06/07 12:51:28;;;;;;;;;;;;;;;24.71;45.98;100861.25;4957300;28;7184;-77
2023/06/07 12:53:54;;;;;;;;;;;;;;;25.00;46.29;100860.28;4985720;28;7158;-77
2023/06/07 12:56:22;;;;;;;;;;;;;;;25.49;45.92;100856.47;4980470;28;6796;-77